sensor_id;sensor_type;location;lat;lon;timestamp;temperature;humidity
23475;DHT22;11910;52.086;21.066;2022-08-19T00:01:51;20.30;99.50
23475;DHT22;11910;52.086;21.066;2022-08-19T00:04:18;20.30;99.90
23475;DHT22;11910;52.086;21.066;2022-08-19T00:06:46;20.30;99.90
23475;DHT22;11910;52.086;21.066;2022-08-19T00:09:13;20.30;99.90
23475;DHT22;11910;52.086;21.066;2022-08-19T00:11:40;20.40;99.90
23475;DHT22;11910;52.086;21.066;2022-08-19T00:14:08;20.50;99.90
23475;DHT22;11910;52.086;21.066;2022-08-19T00:16:35;20.50;99.90
23475;DHT22;11910;52.086;21.066;2022-08-19T00:19:01;20.40;99.30
23475;DHT22;11910;52.086;21.066;2022-08-19T00:21:27;20.40;99.90
23475;DHT22;11910;52.086;21.066;2022-08-19T00:23:54;20.20;99.90
23475;DHT22;11910;52.086;21.066;2022-08-19T00:26:24;20.20;99.90
23475;DHT22;11910;52.086;21.066;2022-08-19T00:28:49;20.20;99.90
23475;DHT22;11910;52.086;21.066;2022-08-19T00:31:15;20.20;99.90
23475;DHT22;11910;52.086;21.066;2022-08-19T00:33:41;20.10;99.90
23475;DHT22;11910;52.086;21.066;2022-08-19T00:36:09;20.10;99.30
23475;DHT22;11910;52.086;21.066;2022-08-19T00:38:37;20.10;99.20
23475;DHT22;11910;52.086;21.066;2022-08-19T00:41:04;20.00;99.10
23475;DHT22;11910;52.086;21.066;2022-08-19T00:43:30;20.00;99.20
23475;DHT22;11910;52.086;21.066;2022-08-19T00:45:55;19.90;99.20
23475;DHT22;11910;52.086;21.066;2022-08-19T00:48:21;19.90;99.00
23475;DHT22;11910;52.086;21.066;2022-08-19T00:50:50;19.90;99.90
23475;DHT22;11910;52.086;21.066;2022-08-19T00:53:21;19.80;99.90
23475;DHT22;11910;52.086;21.066;2022-08-19T00:55:50;19.90;99.90
23475;DHT22;11910;52.086;21.066;2022-08-19T00:58:20;19.80;99.90
23475;DHT22;11910;52.086;21.066;2022-08-19T01:00:46;19.90;99.90
23475;DHT22;11910;52.086;21.066;2022-08-19T01:03:16;20.00;99.90
23475;DHT22;11910;52.086;21.066;2022-08-19T01:05:43;20.00;99.90
23475;DHT22;11910;52.086;21.066;2022-08-19T01:08:10;20.00;99.90
23475;DHT22;11910;52.086;21.066;2022-08-19T01:10:40;19.90;99.40
23475;DHT22;11910;52.086;21.066;2022-08-19T01:13:07;19.90;99.60
23475;DHT22;11910;52.086;21.066;2022-08-19T01:15:41;19.90;99.90
23475;DHT22;11910;52.086;21.066;2022-08-19T01:18:11;19.80;99.90
23475;DHT22;11910;52.086;21.066;2022-08-19T01:20:37;19.80;99.90
23475;DHT22;11910;52.086;21.066;2022-08-19T01:23:04;19.70;99.60
23475;DHT22;11910;52.086;21.066;2022-08-19T01:25:42;19.70;99.80
23475;DHT22;11910;52.086;21.066;2022-08-19T01:28:23;19.70;99.90
23475;DHT22;11910;52.086;21.066;2022-08-19T01:30:52;19.70;99.90
23475;DHT22;11910;52.086;21.066;2022-08-19T01:33:18;19.70;99.90
23475;DHT22;11910;52.086;21.066;2022-08-19T01:35:45;19.70;99.90
23475;DHT22;11910;52.086;21.066;2022-08-19T01:38:21;19.70;99.90
23475;DHT22;11910;52.086;21.066;2022-08-19T01:40:47;19.70;99.90
23475;DHT22;11910;52.086;21.066;2022-08-19T01:43:12;19.70;99.90
23475;DHT22;11910;52.086;21.066;2022-08-19T01:45:38;19.60;99.50
23475;DHT22;11910;52.086;21.066;2022-08-19T01:48:06;19.50;99.60
23475;DHT22;11910;52.086;21.066;2022-08-19T01:50:34;19.50;99.30
23475;DHT22;11910;52.086;21.066;2022-08-19T01:53:01;19.50;99.80
23475;DHT22;11910;52.086;21.066;2022-08-19T01:55:27;19.50;99.90
23475;DHT22;11910;52.086;21.066;2022-08-19T01:57:55;19.50;99.40
23475;DHT22;11910;52.086;21.066;2022-08-19T02:00:26;19.40;99.80
23475;DHT22;11910;52.086;21.066;2022-08-19T02:02:53;19.50;99.90
23475;DHT22;11910;52.086;21.066;2022-08-19T02:05:19;19.50;99.90
23475;DHT22;11910;52.086;21.066;2022-08-19T02:07:46;19.50;99.90
23475;DHT22;11910;52.086;21.066;2022-08-19T02:10:15;19.40;99.50
23475;DHT22;11910;52.086;21.066;2022-08-19T02:12:41;19.40;99.40
23475;DHT22;11910;52.086;21.066;2022-08-19T02:15:07;19.40;99.40
23475;DHT22;11910;52.086;21.066;2022-08-19T02:17:33;19.40;99.90
23475;DHT22;11910;52.086;21.066;2022-08-19T02:19:58;19.40;99.90
23475;DHT22;11910;52.086;21.066;2022-08-19T02:22:25;19.50;99.90
23475;DHT22;11910;52.086;21.066;2022-08-19T02:24:54;19.50;99.90
23475;DHT22;11910;52.086;21.066;2022-08-19T02:27:20;19.50;99.90
23475;DHT22;11910;52.086;21.066;2022-08-19T02:29:47;19.60;99.90
23475;DHT22;11910;52.086;21.066;2022-08-19T02:32:14;19.70;99.90
23475;DHT22;11910;52.086;21.066;2022-08-19T02:34:40;19.70;99.90
23475;DHT22;11910;52.086;21.066;2022-08-19T02:37:06;19.60;99.90
23475;DHT22;11910;52.086;21.066;2022-08-19T02:39:52;19.60;99.90
23475;DHT22;11910;52.086;21.066;2022-08-19T02:42:18;19.60;99.80
23475;DHT22;11910;52.086;21.066;2022-08-19T02:44:43;19.50;99.80
23475;DHT22;11910;52.086;21.066;2022-08-19T02:47:09;19.50;99.90
23475;DHT22;11910;52.086;21.066;2022-08-19T02:49:35;19.40;99.90
23475;DHT22;11910;52.086;21.066;2022-08-19T02:52:01;19.40;99.90
23475;DHT22;11910;52.086;21.066;2022-08-19T02:54:27;19.50;99.90
23475;DHT22;11910;52.086;21.066;2022-08-19T02:56:53;19.40;99.90
23475;DHT22;11910;52.086;21.066;2022-08-19T02:59:18;19.40;99.90
23475;DHT22;11910;52.086;21.066;2022-08-19T03:01:45;19.30;99.20
23475;DHT22;11910;52.086;21.066;2022-08-19T03:04:13;19.30;99.10
23475;DHT22;11910;52.086;21.066;2022-08-19T03:06:42;19.20;99.10
23475;DHT22;11910;52.086;21.066;2022-08-19T03:09:09;19.20;99.20
23475;DHT22;11910;52.086;21.066;2022-08-19T03:11:35;19.10;99.40
23475;DHT22;11910;52.086;21.066;2022-08-19T03:14:01;19.10;99.70
23475;DHT22;11910;52.086;21.066;2022-08-19T03:16:30;19.20;99.90
23475;DHT22;11910;52.086;21.066;2022-08-19T03:18:57;19.20;99.90
23475;DHT22;11910;52.086;21.066;2022-08-19T03:21:26;19.20;99.80
23475;DHT22;11910;52.086;21.066;2022-08-19T03:23:56;19.10;99.40
23475;DHT22;11910;52.086;21.066;2022-08-19T03:26:22;19.00;99.40
23475;DHT22;11910;52.086;21.066;2022-08-19T03:28:48;19.00;99.90
23475;DHT22;11910;52.086;21.066;2022-08-19T03:31:17;19.00;99.90
23475;DHT22;11910;52.086;21.066;2022-08-19T03:33:43;19.00;99.90
23475;DHT22;11910;52.086;21.066;2022-08-19T03:36:16;19.20;99.90
23475;DHT22;11910;52.086;21.066;2022-08-19T03:38:47;19.40;99.90
23475;DHT22;11910;52.086;21.066;2022-08-19T03:41:19;19.50;99.90
23475;DHT22;11910;52.086;21.066;2022-08-19T03:43:46;19.40;99.90
23475;DHT22;11910;52.086;21.066;2022-08-19T03:46:20;19.30;99.90
23475;DHT22;11910;52.086;21.066;2022-08-19T03:48:47;19.30;99.90
23475;DHT22;11910;52.086;21.066;2022-08-19T03:51:29;19.30;99.90
23475;DHT22;11910;52.086;21.066;2022-08-19T03:53:57;19.30;99.90
23475;DHT22;11910;52.086;21.066;2022-08-19T03:56:23;19.30;99.90
23475;DHT22;11910;52.086;21.066;2022-08-19T03:58:51;19.30;99.90
23475;DHT22;11910;52.086;21.066;2022-08-19T04:01:20;19.30;99.90
23475;DHT22;11910;52.086;21.066;2022-08-19T04:03:47;19.30;99.90
23475;DHT22;11910;52.086;21.066;2022-08-19T04:06:15;19.30;99.90
23475;DHT22;11910;52.086;21.066;2022-08-19T04:08:42;19.30;99.90
23475;DHT22;11910;52.086;21.066;2022-08-19T04:11:17;19.30;99.90
23475;DHT22;11910;52.086;21.066;2022-08-19T04:13:43;19.50;99.90
23475;DHT22;11910;52.086;21.066;2022-08-19T04:16:10;19.60;99.90
23475;DHT22;11910;52.086;21.066;2022-08-19T04:18:38;19.60;99.90
23475;DHT22;11910;52.086;21.066;2022-08-19T04:21:04;19.60;99.90
23475;DHT22;11910;52.086;21.066;2022-08-19T04:23:31;19.60;99.90
23475;DHT22;11910;52.086;21.066;2022-08-19T04:25:58;19.60;99.90
23475;DHT22;11910;52.086;21.066;2022-08-19T04:28:24;19.70;99.90
23475;DHT22;11910;52.086;21.066;2022-08-19T04:30:51;19.80;99.90
23475;DHT22;11910;52.086;21.066;2022-08-19T04:33:20;19.90;99.90
23475;DHT22;11910;52.086;21.066;2022-08-19T04:35:48;20.00;99.90
23475;DHT22;11910;52.086;21.066;2022-08-19T04:38:16;20.20;99.90
23475;DHT22;11910;52.086;21.066;2022-08-19T04:40:49;20.30;99.90
23475;DHT22;11910;52.086;21.066;2022-08-19T04:43:35;20.40;99.90
23475;DHT22;11910;52.086;21.066;2022-08-19T04:46:08;20.60;99.90
23475;DHT22;11910;52.086;21.066;2022-08-19T04:48:34;20.70;99.90
23475;DHT22;11910;52.086;21.066;2022-08-19T04:51:00;20.80;99.90
23475;DHT22;11910;52.086;21.066;2022-08-19T04:53:28;20.90;99.90
23475;DHT22;11910;52.086;21.066;2022-08-19T04:55:55;21.00;99.90
23475;DHT22;11910;52.086;21.066;2022-08-19T04:58:23;21.00;99.90
23475;DHT22;11910;52.086;21.066;2022-08-19T05:00:49;21.00;99.90
23475;DHT22;11910;52.086;21.066;2022-08-19T05:03:18;21.10;99.90
23475;DHT22;11910;52.086;21.066;2022-08-19T05:05:45;21.20;99.90
23475;DHT22;11910;52.086;21.066;2022-08-19T05:08:15;21.30;99.90
23475;DHT22;11910;52.086;21.066;2022-08-19T05:10:49;21.30;99.90
23475;DHT22;11910;52.086;21.066;2022-08-19T05:13:17;21.30;99.90
23475;DHT22;11910;52.086;21.066;2022-08-19T05:15:52;21.40;99.90
23475;DHT22;11910;52.086;21.066;2022-08-19T05:18:18;21.50;99.90
23475;DHT22;11910;52.086;21.066;2022-08-19T05:21:07;21.50;99.90
23475;DHT22;11910;52.086;21.066;2022-08-19T05:23:51;21.50;99.90
23475;DHT22;11910;52.086;21.066;2022-08-19T05:26:17;21.60;99.90
23475;DHT22;11910;52.086;21.066;2022-08-19T05:28:43;21.70;99.90
23475;DHT22;11910;52.086;21.066;2022-08-19T05:31:08;21.70;99.90
23475;DHT22;11910;52.086;21.066;2022-08-19T05:33:34;21.70;99.90
23475;DHT22;11910;52.086;21.066;2022-08-19T05:36:02;21.80;99.90
23475;DHT22;11910;52.086;21.066;2022-08-19T05:38:28;21.80;99.90
23475;DHT22;11910;52.086;21.066;2022-08-19T05:40:54;21.90;99.90
23475;DHT22;11910;52.086;21.066;2022-08-19T05:43:19;21.90;99.90
23475;DHT22;11910;52.086;21.066;2022-08-19T05:45:45;21.90;99.90
23475;DHT22;11910;52.086;21.066;2022-08-19T05:48:12;22.10;99.90
23475;DHT22;11910;52.086;21.066;2022-08-19T05:50:39;22.10;99.90
23475;DHT22;11910;52.086;21.066;2022-08-19T05:53:05;22.10;99.90
23475;DHT22;11910;52.086;21.066;2022-08-19T05:55:32;22.10;99.90
23475;DHT22;11910;52.086;21.066;2022-08-19T05:57:58;22.20;99.90
23475;DHT22;11910;52.086;21.066;2022-08-19T06:00:23;22.30;99.90
23475;DHT22;11910;52.086;21.066;2022-08-19T06:02:49;22.30;99.90
23475;DHT22;11910;52.086;21.066;2022-08-19T06:05:16;22.40;99.90
23475;DHT22;11910;52.086;21.066;2022-08-19T06:07:42;22.50;99.90
23475;DHT22;11910;52.086;21.066;2022-08-19T06:10:10;22.50;99.90
23475;DHT22;11910;52.086;21.066;2022-08-19T06:12:36;22.50;99.90
23475;DHT22;11910;52.086;21.066;2022-08-19T06:15:05;22.60;99.90
23475;DHT22;11910;52.086;21.066;2022-08-19T06:17:32;22.60;99.90
23475;DHT22;11910;52.086;21.066;2022-08-19T06:19:59;22.70;99.90
23475;DHT22;11910;52.086;21.066;2022-08-19T06:22:26;22.70;99.90
23475;DHT22;11910;52.086;21.066;2022-08-19T06:24:52;22.70;99.90
23475;DHT22;11910;52.086;21.066;2022-08-19T06:27:19;22.80;99.90
23475;DHT22;11910;52.086;21.066;2022-08-19T06:29:45;22.90;99.90
23475;DHT22;11910;52.086;21.066;2022-08-19T06:32:14;22.90;99.90
23475;DHT22;11910;52.086;21.066;2022-08-19T06:34:40;23.00;99.90
23475;DHT22;11910;52.086;21.066;2022-08-19T06:37:06;23.10;99.90
23475;DHT22;11910;52.086;21.066;2022-08-19T06:39:37;23.20;99.90
23475;DHT22;11910;52.086;21.066;2022-08-19T06:42:05;23.30;99.90
23475;DHT22;11910;52.086;21.066;2022-08-19T06:44:34;23.30;99.90
23475;DHT22;11910;52.086;21.066;2022-08-19T06:47:03;23.30;99.90
23475;DHT22;11910;52.086;21.066;2022-08-19T06:49:30;23.40;99.90
23475;DHT22;11910;52.086;21.066;2022-08-19T06:51:59;23.40;99.90
23475;DHT22;11910;52.086;21.066;2022-08-19T06:54:25;23.40;99.90
23475;DHT22;11910;52.086;21.066;2022-08-19T06:56:51;23.50;99.90
23475;DHT22;11910;52.086;21.066;2022-08-19T06:59:21;23.50;99.90
23475;DHT22;11910;52.086;21.066;2022-08-19T07:01:53;23.60;99.90
23475;DHT22;11910;52.086;21.066;2022-08-19T07:04:22;23.70;99.90
23475;DHT22;11910;52.086;21.066;2022-08-19T07:06:50;23.80;99.90
23475;DHT22;11910;52.086;21.066;2022-08-19T07:09:17;23.90;99.90
23475;DHT22;11910;52.086;21.066;2022-08-19T07:11:45;24.00;99.90
23475;DHT22;11910;52.086;21.066;2022-08-19T07:14:11;24.00;99.90
23475;DHT22;11910;52.086;21.066;2022-08-19T07:16:37;24.10;99.90
23475;DHT22;11910;52.086;21.066;2022-08-19T07:19:03;24.20;99.90
23475;DHT22;11910;52.086;21.066;2022-08-19T07:21:29;24.40;99.90
23475;DHT22;11910;52.086;21.066;2022-08-19T07:23:56;24.50;99.90
23475;DHT22;11910;52.086;21.066;2022-08-19T07:26:26;24.70;99.90
23475;DHT22;11910;52.086;21.066;2022-08-19T07:28:52;24.80;99.90
23475;DHT22;11910;52.086;21.066;2022-08-19T07:31:21;24.90;99.90
23475;DHT22;11910;52.086;21.066;2022-08-19T07:33:49;25.10;99.90
23475;DHT22;11910;52.086;21.066;2022-08-19T07:36:18;25.20;99.90
23475;DHT22;11910;52.086;21.066;2022-08-19T07:38:47;25.40;99.90
23475;DHT22;11910;52.086;21.066;2022-08-19T07:41:19;25.50;99.90
23475;DHT22;11910;52.086;21.066;2022-08-19T07:43:46;25.70;99.90
23475;DHT22;11910;52.086;21.066;2022-08-19T07:46:12;25.80;99.90
23475;DHT22;11910;52.086;21.066;2022-08-19T07:48:40;25.90;99.80
23475;DHT22;11910;52.086;21.066;2022-08-19T07:51:07;26.00;99.70
23475;DHT22;11910;52.086;21.066;2022-08-19T07:53:34;26.10;99.90
23475;DHT22;11910;52.086;21.066;2022-08-19T07:56:01;26.20;99.50
23475;DHT22;11910;52.086;21.066;2022-08-19T07:58:28;26.30;99.00
23475;DHT22;11910;52.086;21.066;2022-08-19T08:00:54;26.40;99.40
23475;DHT22;11910;52.086;21.066;2022-08-19T08:03:21;26.50;99.70
23475;DHT22;11910;52.086;21.066;2022-08-19T08:06:07;26.50;99.90
23475;DHT22;11910;52.086;21.066;2022-08-19T08:08:51;26.70;99.90
23475;DHT22;11910;52.086;21.066;2022-08-19T08:11:39;26.80;98.80
23475;DHT22;11910;52.086;21.066;2022-08-19T08:14:05;26.90;99.10
23475;DHT22;11910;52.086;21.066;2022-08-19T08:16:36;27.00;98.10
23475;DHT22;11910;52.086;21.066;2022-08-19T08:19:04;27.00;98.80
23475;DHT22;11910;52.086;21.066;2022-08-19T08:21:32;27.10;98.40
23475;DHT22;11910;52.086;21.066;2022-08-19T08:23:58;27.10;98.40
23475;DHT22;11910;52.086;21.066;2022-08-19T08:26:23;27.20;97.10
23475;DHT22;11910;52.086;21.066;2022-08-19T08:28:50;27.30;98.00
23475;DHT22;11910;52.086;21.066;2022-08-19T08:31:16;27.40;98.00
23475;DHT22;11910;52.086;21.066;2022-08-19T08:33:44;27.50;97.10
23475;DHT22;11910;52.086;21.066;2022-08-19T08:36:11;27.60;95.80
23475;DHT22;11910;52.086;21.066;2022-08-19T08:38:39;27.70;95.80
23475;DHT22;11910;52.086;21.066;2022-08-19T08:41:13;27.80;94.70
23475;DHT22;11910;52.086;21.066;2022-08-19T08:43:46;27.80;93.40
23475;DHT22;11910;52.086;21.066;2022-08-19T08:46:38;27.80;93.20
23475;DHT22;11910;52.086;21.066;2022-08-19T08:49:26;27.90;93.10
23475;DHT22;11910;52.086;21.066;2022-08-19T08:52:04;28.00;92.80
23475;DHT22;11910;52.086;21.066;2022-08-19T08:54:42;28.10;92.00
23475;DHT22;11910;52.086;21.066;2022-08-19T08:57:14;28.20;92.20
23475;DHT22;11910;52.086;21.066;2022-08-19T08:59:41;28.30;92.50
23475;DHT22;11910;52.086;21.066;2022-08-19T09:02:08;28.40;91.90
23475;DHT22;11910;52.086;21.066;2022-08-19T09:04:36;28.50;91.10
23475;DHT22;11910;52.086;21.066;2022-08-19T09:07:20;28.60;91.30
23475;DHT22;11910;52.086;21.066;2022-08-19T09:09:50;28.70;90.90
23475;DHT22;11910;52.086;21.066;2022-08-19T09:15:03;29.00;90.40
23475;DHT22;11910;52.086;21.066;2022-08-19T09:17:31;29.20;90.10
23475;DHT22;11910;52.086;21.066;2022-08-19T09:22:41;29.40;90.30
23475;DHT22;11910;52.086;21.066;2022-08-19T09:25:10;29.60;90.00
23475;DHT22;11910;52.086;21.066;2022-08-19T09:27:37;30.10;90.30
23475;DHT22;11910;52.086;21.066;2022-08-19T09:30:04;30.80;86.10
23475;DHT22;11910;52.086;21.066;2022-08-19T09:32:30;32.20;81.70
23475;DHT22;11910;52.086;21.066;2022-08-19T09:34:56;33.70;76.60
23475;DHT22;11910;52.086;21.066;2022-08-19T09:37:24;34.70;71.90
23475;DHT22;11910;52.086;21.066;2022-08-19T09:39:50;35.40;69.00
23475;DHT22;11910;52.086;21.066;2022-08-19T09:42:16;35.80;64.80
23475;DHT22;11910;52.086;21.066;2022-08-19T09:44:42;36.30;65.90
23475;DHT22;11910;52.086;21.066;2022-08-19T09:47:09;37.10;62.20
23475;DHT22;11910;52.086;21.066;2022-08-19T09:49:36;37.10;60.10
23475;DHT22;11910;52.086;21.066;2022-08-19T09:52:03;37.30;59.40
23475;DHT22;11910;52.086;21.066;2022-08-19T09:54:29;37.40;58.30
23475;DHT22;11910;52.086;21.066;2022-08-19T09:56:55;37.60;57.30
23475;DHT22;11910;52.086;21.066;2022-08-19T09:59:21;37.90;58.00
23475;DHT22;11910;52.086;21.066;2022-08-19T10:01:47;38.20;56.60
23475;DHT22;11910;52.086;21.066;2022-08-19T10:04:13;38.20;58.00
23475;DHT22;11910;52.086;21.066;2022-08-19T10:06:39;38.40;56.60
23475;DHT22;11910;52.086;21.066;2022-08-19T10:09:08;38.60;56.40
23475;DHT22;11910;52.086;21.066;2022-08-19T10:11:35;38.50;55.90
23475;DHT22;11910;52.086;21.066;2022-08-19T10:14:03;38.60;55.20
23475;DHT22;11910;52.086;21.066;2022-08-19T10:16:31;38.60;56.00
23475;DHT22;11910;52.086;21.066;2022-08-19T10:18:57;38.50;55.60
23475;DHT22;11910;52.086;21.066;2022-08-19T10:21:25;38.40;55.90
23475;DHT22;11910;52.086;21.066;2022-08-19T10:23:52;37.90;56.60
23475;DHT22;11910;52.086;21.066;2022-08-19T10:26:25;37.50;57.40
23475;DHT22;11910;52.086;21.066;2022-08-19T10:28:51;37.00;58.20
23475;DHT22;11910;52.086;21.066;2022-08-19T10:31:28;36.80;58.90
23475;DHT22;11910;52.086;21.066;2022-08-19T10:33:54;36.50;60.30
23475;DHT22;11910;52.086;21.066;2022-08-19T10:36:31;36.30;60.30
23475;DHT22;11910;52.086;21.066;2022-08-19T10:38:59;35.70;59.10
23475;DHT22;11910;52.086;21.066;2022-08-19T10:41:31;35.50;60.50
23475;DHT22;11910;52.086;21.066;2022-08-19T10:44:00;35.20;61.10
23475;DHT22;11910;52.086;21.066;2022-08-19T10:46:28;35.10;62.60
23475;DHT22;11910;52.086;21.066;2022-08-19T10:48:56;34.90;62.20
23475;DHT22;11910;52.086;21.066;2022-08-19T10:51:22;34.70;61.00
23475;DHT22;11910;52.086;21.066;2022-08-19T10:54:06;34.50;63.30
23475;DHT22;11910;52.086;21.066;2022-08-19T10:56:32;34.50;64.90
23475;DHT22;11910;52.086;21.066;2022-08-19T10:59:24;34.40;63.60
23475;DHT22;11910;52.086;21.066;2022-08-19T11:01:54;34.30;62.60
23475;DHT22;11910;52.086;21.066;2022-08-19T11:04:20;34.20;63.50
23475;DHT22;11910;52.086;21.066;2022-08-19T11:06:48;34.10;64.60
23475;DHT22;11910;52.086;21.066;2022-08-19T11:09:16;34.00;62.20
23475;DHT22;11910;52.086;21.066;2022-08-19T11:11:43;33.80;63.80
23475;DHT22;11910;52.086;21.066;2022-08-19T11:14:11;33.60;63.70
23475;DHT22;11910;52.086;21.066;2022-08-19T11:16:37;33.70;65.70
23475;DHT22;11910;52.086;21.066;2022-08-19T11:19:07;33.80;65.50
23475;DHT22;11910;52.086;21.066;2022-08-19T11:21:36;33.80;66.70
23475;DHT22;11910;52.086;21.066;2022-08-19T11:24:12;33.70;65.20
23475;DHT22;11910;52.086;21.066;2022-08-19T11:26:40;33.60;63.30
23475;DHT22;11910;52.086;21.066;2022-08-19T11:29:07;33.60;66.60
23475;DHT22;11910;52.086;21.066;2022-08-19T11:31:37;33.70;66.50
23475;DHT22;11910;52.086;21.066;2022-08-19T11:34:07;33.60;63.60
23475;DHT22;11910;52.086;21.066;2022-08-19T11:36:33;33.50;66.90
23475;DHT22;11910;52.086;21.066;2022-08-19T11:39:00;33.50;63.10
23475;DHT22;11910;52.086;21.066;2022-08-19T11:41:26;33.50;63.80
23475;DHT22;11910;52.086;21.066;2022-08-19T11:43:53;33.60;64.50
23475;DHT22;11910;52.086;21.066;2022-08-19T11:46:21;33.50;64.40
23475;DHT22;11910;52.086;21.066;2022-08-19T11:48:48;33.50;65.30
23475;DHT22;11910;52.086;21.066;2022-08-19T11:51:17;33.50;66.90
23475;DHT22;11910;52.086;21.066;2022-08-19T11:53:44;33.60;67.10
23475;DHT22;11910;52.086;21.066;2022-08-19T11:56:11;33.50;66.50
23475;DHT22;11910;52.086;21.066;2022-08-19T11:58:38;33.40;63.70
23475;DHT22;11910;52.086;21.066;2022-08-19T12:01:08;33.30;62.70
23475;DHT22;11910;52.086;21.066;2022-08-19T12:03:34;33.20;64.00
23475;DHT22;11910;52.086;21.066;2022-08-19T12:06:12;33.20;66.10
23475;DHT22;11910;52.086;21.066;2022-08-19T12:08:40;33.20;65.90
23475;DHT22;11910;52.086;21.066;2022-08-19T12:11:06;33.30;65.60
23475;DHT22;11910;52.086;21.066;2022-08-19T12:13:36;33.20;66.40
23475;DHT22;11910;52.086;21.066;2022-08-19T12:16:11;33.20;64.70
23475;DHT22;11910;52.086;21.066;2022-08-19T12:18:38;33.20;63.60
23475;DHT22;11910;52.086;21.066;2022-08-19T12:21:07;33.20;65.10
23475;DHT22;11910;52.086;21.066;2022-08-19T12:23:33;33.10;64.60
23475;DHT22;11910;52.086;21.066;2022-08-19T12:25:59;33.00;63.80
23475;DHT22;11910;52.086;21.066;2022-08-19T12:28:25;32.90;65.00
23475;DHT22;11910;52.086;21.066;2022-08-19T12:30:51;33.00;67.00
23475;DHT22;11910;52.086;21.066;2022-08-19T12:33:18;33.00;65.20
23475;DHT22;11910;52.086;21.066;2022-08-19T12:35:45;32.90;64.00
23475;DHT22;11910;52.086;21.066;2022-08-19T12:38:13;32.90;64.00
23475;DHT22;11910;52.086;21.066;2022-08-19T12:40:39;32.90;64.30
23475;DHT22;11910;52.086;21.066;2022-08-19T12:43:08;32.70;64.20
23475;DHT22;11910;52.086;21.066;2022-08-19T12:45:34;32.70;63.70
23475;DHT22;11910;52.086;21.066;2022-08-19T12:48:00;32.70;64.80
23475;DHT22;11910;52.086;21.066;2022-08-19T12:50:26;32.70;64.70
23475;DHT22;11910;52.086;21.066;2022-08-19T12:52:51;32.70;63.30
23475;DHT22;11910;52.086;21.066;2022-08-19T12:55:17;32.60;62.70
23475;DHT22;11910;52.086;21.066;2022-08-19T12:57:44;32.50;63.50
23475;DHT22;11910;52.086;21.066;2022-08-19T13:00:13;32.50;63.40
23475;DHT22;11910;52.086;21.066;2022-08-19T13:02:41;32.50;64.10
23475;DHT22;11910;52.086;21.066;2022-08-19T13:05:11;32.50;65.80
23475;DHT22;11910;52.086;21.066;2022-08-19T13:07:39;32.50;63.90
23475;DHT22;11910;52.086;21.066;2022-08-19T13:10:08;32.60;66.00
23475;DHT22;11910;52.086;21.066;2022-08-19T13:12:34;32.70;66.30
23475;DHT22;11910;52.086;21.066;2022-08-19T13:15:00;32.70;64.30
23475;DHT22;11910;52.086;21.066;2022-08-19T13:17:25;32.80;63.80
23475;DHT22;11910;52.086;21.066;2022-08-19T13:19:52;32.80;64.80
23475;DHT22;11910;52.086;21.066;2022-08-19T13:22:18;32.90;64.60
23475;DHT22;11910;52.086;21.066;2022-08-19T13:24:44;32.90;64.40
23475;DHT22;11910;52.086;21.066;2022-08-19T13:27:09;32.90;64.30
23475;DHT22;11910;52.086;21.066;2022-08-19T13:29:57;32.90;62.10
23475;DHT22;11910;52.086;21.066;2022-08-19T13:32:41;32.90;63.80
23475;DHT22;11910;52.086;21.066;2022-08-19T13:35:25;33.00;63.30
23475;DHT22;11910;52.086;21.066;2022-08-19T13:37:51;33.00;62.00
23475;DHT22;11910;52.086;21.066;2022-08-19T13:40:22;33.10;62.50
23475;DHT22;11910;52.086;21.066;2022-08-19T13:42:51;33.10;63.30
23475;DHT22;11910;52.086;21.066;2022-08-19T13:45:19;33.20;61.50
23475;DHT22;11910;52.086;21.066;2022-08-19T13:47:50;33.20;59.60
23475;DHT22;11910;52.086;21.066;2022-08-19T13:50:18;33.20;62.30
23475;DHT22;11910;52.086;21.066;2022-08-19T13:52:45;33.20;61.40
23475;DHT22;11910;52.086;21.066;2022-08-19T13:55:12;33.10;61.10
23475;DHT22;11910;52.086;21.066;2022-08-19T13:57:38;33.10;60.10
23475;DHT22;11910;52.086;21.066;2022-08-19T14:00:07;33.10;60.60
23475;DHT22;11910;52.086;21.066;2022-08-19T14:02:35;33.10;61.40
23475;DHT22;11910;52.086;21.066;2022-08-19T14:05:01;33.00;60.00
23475;DHT22;11910;52.086;21.066;2022-08-19T14:07:27;33.10;61.00
23475;DHT22;11910;52.086;21.066;2022-08-19T14:09:53;33.20;63.10
23475;DHT22;11910;52.086;21.066;2022-08-19T14:12:20;33.10;61.40
23475;DHT22;11910;52.086;21.066;2022-08-19T14:14:46;33.20;60.90
23475;DHT22;11910;52.086;21.066;2022-08-19T14:17:12;33.10;60.30
23475;DHT22;11910;52.086;21.066;2022-08-19T14:19:38;33.00;59.80
23475;DHT22;11910;52.086;21.066;2022-08-19T14:22:03;33.00;59.90
23475;DHT22;11910;52.086;21.066;2022-08-19T14:24:29;32.80;59.50
23475;DHT22;11910;52.086;21.066;2022-08-19T14:26:55;32.70;59.90
23475;DHT22;11910;52.086;21.066;2022-08-19T14:29:22;32.60;60.40
23475;DHT22;11910;52.086;21.066;2022-08-19T14:31:48;32.50;59.50
23475;DHT22;11910;52.086;21.066;2022-08-19T14:34:14;32.40;59.80
23475;DHT22;11910;52.086;21.066;2022-08-19T14:36:40;32.30;59.80
23475;DHT22;11910;52.086;21.066;2022-08-19T14:39:07;32.20;61.00
23475;DHT22;11910;52.086;21.066;2022-08-19T14:41:34;32.20;62.10
23475;DHT22;11910;52.086;21.066;2022-08-19T14:43:59;32.00;61.00
23475;DHT22;11910;52.086;21.066;2022-08-19T14:46:27;31.90;61.80
23475;DHT22;11910;52.086;21.066;2022-08-19T14:48:54;31.80;62.30
23475;DHT22;11910;52.086;21.066;2022-08-19T14:51:21;31.70;61.40
23475;DHT22;11910;52.086;21.066;2022-08-19T14:53:51;31.70;61.30
23475;DHT22;11910;52.086;21.066;2022-08-19T14:56:21;31.60;60.90
23475;DHT22;11910;52.086;21.066;2022-08-19T14:58:47;31.50;63.70
23475;DHT22;11910;52.086;21.066;2022-08-19T15:01:17;31.40;62.30
23475;DHT22;11910;52.086;21.066;2022-08-19T15:03:45;31.40;63.10
23475;DHT22;11910;52.086;21.066;2022-08-19T15:06:11;31.20;63.30
23475;DHT22;11910;52.086;21.066;2022-08-19T15:08:39;31.20;64.20
23475;DHT22;11910;52.086;21.066;2022-08-19T15:11:12;31.10;64.80
23475;DHT22;11910;52.086;21.066;2022-08-19T15:13:40;31.00;64.10
23475;DHT22;11910;52.086;21.066;2022-08-19T15:16:06;30.90;64.70
23475;DHT22;11910;52.086;21.066;2022-08-19T15:18:32;30.90;65.00
23475;DHT22;11910;52.086;21.066;2022-08-19T15:20:59;30.80;66.10
23475;DHT22;11910;52.086;21.066;2022-08-19T15:23:25;30.80;66.00
23475;DHT22;11910;52.086;21.066;2022-08-19T15:25:51;30.70;66.70
23475;DHT22;11910;52.086;21.066;2022-08-19T15:28:24;30.60;66.80